Time;durP1;ratioP1;P1;durP2;ratioP2;P2;SDS_P1;SDS_P2;PMS_P1;PMS_P2;Temp;Humidity;BMP_temperature;BMP_pressure;BME280_temperature;BME280_humidity;BME280_pressure;Samples;Min_cycle;Max_cycle;Signal;HPM_P1;HPM_P2
2022/12/17 13:06:52;;;;;;;1.70;1.60;;;;;;;1.40;100.00;100552.78;6133477;23;20052;-89
2022/12/17 13:09:27;;;;;;;2.47;2.30;;;;;;;1.39;100.00;100550.38;6153600;23;20096;-90
2022/12/17 13:11:59;;;;;;;2.92;2.72;;;;;;;1.40;100.00;100543.78;6179853;23;20021;-89
2022/12/17 13:14:52;;;;;;;1.65;1.55;;;;;;;1.32;100.00;100545.59;6178803;23;20285;-89
2022/12/17 13:17:34;;;;;;;2.55;2.42;;;;;;;1.28;100.00;100550.19;6180129;23;20036;-89
2022/12/17 13:20:23;;;;;;;1.25;1.17;;;;;;;1.40;100.00;100568.38;6180051;23;20024;-88
2022/12/17 13:22:51;;;;;;;0.77;0.77;;;;;;;1.23;100.00;100553.22;6181148;23;20439;-89
2022/12/17 13:25:19;;;;;;;3.35;3.10;;;;;;;1.23;100.00;100538.75;6153899;23;19997;-90
2022/12/17 13:27:45;;;;;;;2.28;1.65;;;;;;;1.44;100.00;100591.09;6155128;23;20100;-89
2022/12/17 13:30:17;;;;;;;3.88;1.85;;;;;;;1.43;100.00;100592.25;6154906;23;20125;-90
2022/12/17 13:33:12;;;;;;;2.55;1.83;;;;;;;1.41;100.00;100608.25;6153436;23;20443;-91
2022/12/17 13:35:43;;;;;;;8.20;1.67;;;;;;;1.36;100.00;100622.19;6154685;23;20020;-89
2022/12/17 13:38:40;;;;;;;2.58;2.40;;;;;;;1.36;100.00;100616.72;6128764;23;20052;-89
2022/12/17 13:41:07;;;;;;;4.10;2.70;;;;;;;1.38;100.00;100617.94;6152807;23;20032;-89
2022/12/17 13:43:39;;;;;;;0.82;0.82;;;;;;;1.25;100.00;100596.59;6153631;23;20025;-90
2022/12/17 13:46:05;;;;;;;1.58;1.48;;;;;;;1.30;100.00;100624.41;6154980;23;20068;-89
2022/12/17 13:48:30;;;;;;;1.90;1.80;;;;;;;1.15;100.00;100619.03;6158192;23;20021;-94
2022/12/17 13:51:04;;;;;;;1.65;1.17;;;;;;;1.04;100.00;100609.81;6108181;23;20103;-96
2022/12/17 13:53:34;;;;;;;4.25;2.78;;;;;;;1.22;100.00;100647.28;6109081;23;20636;-94
2022/12/17 13:56:01;;;;;;;2.15;1.98;;;;;;;1.04;100.00;100620.75;6133384;23;20060;-95
2022/12/17 13:58:30;;;;;;;2.47;2.28;;;;;;;1.11;100.00;100664.59;6109598;23;20075;-95
2022/12/17 14:01:10;;;;;;;3.42;1.92;;;;;;;1.10;100.00;100668.47;6109576;23;20025;-95
2022/12/17 14:03:36;;;;;;;3.63;2.65;;;;;;;1.00;100.00;100672.59;6108844;23;20541;-94
2022/12/17 14:06:04;;;;;;;2.00;1.83;;;;;;;0.90;100.00;100654.81;6154603;23;20028;-89
2022/12/17 14:08:30;;;;;;;3.03;2.83;;;;;;;0.89;100.00;100639.56;6157711;23;20020;-94
2022/12/17 14:13:47;;;;;;;2.15;1.95;;;;;;;0.83;100.00;100665.56;6125518;23;20053;-94
2022/12/17 14:16:19;;;;;;;1.90;1.77;;;;;;;0.87;100.00;100693.75;6131937;23;20016;-95
2022/12/17 14:18:51;;;;;;;1.70;1.60;;;;;;;0.77;100.00;100679.88;6133486;23;20108;-96
2022/12/17 14:21:17;;;;;;;2.38;2.22;;;;;;;0.67;100.00;100670.28;6109975;23;20021;-96
2022/12/17 14:23:44;;;;;;;4.40;4.10;;;;;;;0.91;100.00;100721.94;6107180;23;20016;-90
2022/12/17 14:26:11;;;;;;;3.58;2.67;;;;;;;0.83;100.00;100719.41;6130686;23;20191;-95
2022/12/17 14:28:45;;;;;;;0.85;0.85;;;;;;;0.63;100.00;100691.25;6111366;23;20009;-94
2022/12/17 14:31:13;;;;;;;1.13;0.98;;;;;;;0.89;100.00;100728.94;6132554;23;20094;-95
2022/12/17 14:33:41;;;;;;;2.10;1.80;;;;;;;0.78;100.00;100723.19;6132020;23;20017;-95
2022/12/17 14:36:22;;;;;;;4.47;3.75;;;;;;;0.67;100.00;100711.22;6130710;23;20217;-93
2022/12/17 14:38:56;;;;;;;2.17;1.98;;;;;;;0.83;100.00;100736.59;6110510;23;20009;-96
2022/12/17 14:44:16;;;;;;;2.25;1.75;;;;;;;0.69;100.00;100741.69;6139183;23;20099;-90
2022/12/17 14:46:41;;;;;;;1.42;1.33;;;;;;;0.64;100.00;100733.78;6129691;23;20029;-89
2022/12/17 14:49:16;;;;;;;3.38;2.78;;;;;;;0.64;100.00;100741.97;6128109;23;20427;-89
2022/12/17 14:51:41;;;;;;;1.30;1.25;;;;;;;0.71;100.00;100760.47;6129498;23;20025;-89
2022/12/17 14:54:13;;;;;;;2.15;1.95;;;;;;;0.73;100.00;100769.13;6151277;23;20342;-89
2022/12/17 14:56:41;;;;;;;1.20;1.13;;;;;;;0.67;100.00;100774.03;6152592;23;20024;-89
2022/12/17 14:59:31;;;;;;;1.13;0.98;;;;;;;0.56;100.00;100762.06;6152548;23;20020;-90
2022/12/17 15:01:59;;;;;;;1.73;1.33;;;;;;;0.53;100.00;100761.97;6155285;23;20436;-95
2022/12/17 15:04:25;;;;;;;1.63;1.52;;;;;;;0.43;100.00;100758.63;6105066;23;20525;-89
2022/12/17 15:06:53;;;;;;;0.60;0.60;;;;;;;0.40;100.00;100767.53;6128948;23;20013;-89
2022/12/17 15:09:18;;;;;;;3.00;1.05;;;;;;;0.35;100.00;100780.63;6177873;23;20025;-90
2022/12/17 15:11:44;;;;;;;3.05;2.22;;;;;;;0.49;100.00;100797.34;6153570;23;20028;-89
2022/12/17 15:14:13;;;;;;;3.92;1.30;;;;;;;0.50;100.00;100792.69;6152247;23;20104;-89
2022/12/17 15:16:39;;;;;;;0.85;0.85;;;;;;;0.29;100.00;100776.53;6153882;23;20012;-89
2022/12/17 15:19:04;;;;;;;0.57;0.57;;;;;;;0.29;100.00;100782.00;6153112;23;20124;-88
2022/12/17 15:21:30;;;;;;;0.80;0.80;;;;;;;0.28;100.00;100781.22;6155554;23;20100;-95
2022/12/17 15:23:56;;;;;;;2.10;2.00;;;;;;;0.22;100.00;100790.00;6105633;23;20009;-89
2022/12/17 15:26:22;;;;;;;1.98;1.67;;;;;;;0.34;100.00;100800.84;6152992;23;20064;-89
2022/12/17 15:28:47;;;;;;;0.75;0.75;;;;;;;0.29;100.00;100792.91;6176961;23;20076;-92
2022/12/17 15:31:14;;;;;;;2.88;1.08;;;;;;;0.23;100.00;100788.88;6152250;23;20036;-89
2022/12/17 15:33:40;;;;;;;0.98;0.75;;;;;;;0.34;100.00;100823.47;6177449;23;20091;-88
2022/12/17 15:36:06;;;;;;;2.72;2.53;;;;;;;0.36;100.00;100834.88;6175126;23;20013;-89
2022/12/17 15:38:32;;;;;;;0.38;0.38;;;;;;;0.29;100.00;100823.72;6150638;23;20044;-88
2022/12/17 15:43:09;;;;;;;2.03;1.92;;;;;;;0.29;100.00;100842.03;6150977;23;20024;-92
2022/12/17 15:43:49;;;;;;;2.22;1.80;;;;;;;0.29;100.00;100858.41;6156579;23;20013;-92
2022/12/17 15:46:15;;;;;;;2.28;1.63;;;;;;;0.18;100.00;100851.88;6126314;23;20420;-91
2022/12/17 15:48:40;;;;;;;4.43;2.60;;;;;;;0.08;100.00;100855.09;6125689;23;20016;-92
2022/12/17 15:51:06;;;;;;;2.88;2.67;;;;;;;0.07;100.00;100861.69;6124891;23;20052;-92
2022/12/17 15:53:32;;;;;;;3.20;1.60;;;;;;;0.02;100.00;100864.66;6127866;23;20035;-92
2022/12/17 15:56:04;;;;;;;1.83;1.73;;;;;;;-0.07;100.00;100862.88;6151832;23;20017;-93
2022/12/17 15:58:30;;;;;;;1.27;1.25;;;;;;;0.02;100.00;100875.56;6107535;23;20351;-93
2022/12/17 16:00:55;;;;;;;2.38;1.98;;;;;;;-0.02;100.00;100881.72;6124353;23;20022;-94
2022/12/17 16:03:21;;;;;;;1.88;1.73;;;;;;;-0.05;100.00;100876.16;6077791;23;20113;-94
2022/12/17 16:05:47;;;;;;;4.13;2.33;;;;;;;-0.06;100.00;100875.38;6100849;23;20388;-93
2022/12/17 16:08:12;;;;;;;1.08;1.08;;;;;;;-0.14;100.00;100892.66;6101175;23;20017;-93
2022/12/17 16:10:38;;;;;;;3.15;2.78;;;;;;;-0.14;100.00;100895.38;6100664;23;20013;-93
2022/12/17 16:13:04;;;;;;;1.77;1.67;;;;;;;-0.20;100.00;100890.53;6100586;23;20018;-92
2022/12/17 16:15:30;;;;;;;1.95;0.65;;;;;;;-0.28;100.00;100900.41;6102411;23;20018;-93
2022/12/17 16:17:55;;;;;;;0.85;0.85;;;;;;;-0.32;100.00;100885.88;6079035;23;20016;-88
2022/12/17 16:20:22;;;;;;;5.57;2.75;;;;;;;-0.36;100.00;100889.66;6151031;23;20102;-88
2022/12/17 16:22:47;;;;;;;1.90;1.80;;;;;;;-0.34;100.00;100907.22;6100484;23;20388;-89
2022/12/17 16:25:13;;;;;;;1.95;1.85;;;;;;;-0.36;100.00;100898.59;6076966;23;20013;-89
2022/12/17 16:27:39;;;;;;;2.63;2.47;;;;;;;-0.39;100.00;100910.19;6100516;23;20029;-88
2022/12/17 16:30:06;;;;;;;2.92;2.72;;;;;;;-0.40;100.00;100919.50;6127485;23;20002;-88
2022/12/17 16:32:32;;;;;;;3.13;2.78;;;;;;;-0.58;100.00;100901.78;6124933;23;20014;-88
2022/12/17 16:34:58;;;;;;;2.83;2.30;;;;;;;-0.57;100.00;100908.84;6123993;23;20029;-88
2022/12/17 16:37:24;;;;;;;0.93;0.93;;;;;;;-0.49;100.00;100927.00;6125403;23;20014;-91
2022/12/17 16:39:50;;;;;;;1.40;1.33;;;;;;;-0.55;100.00;100920.19;6074684;23;20025;-89
2022/12/17 16:42:16;;;;;;;1.73;1.63;;;;;;;-0.56;100.00;100932.22;6075143;23;20428;-90
2022/12/17 16:44:42;;;;;;;1.50;1.40;;;;;;;-0.68;100.00;100913.13;6100688;23;20076;-91
2022/12/17 16:47:09;;;;;;;1.92;1.83;;;;;;;-0.70;100.00;100918.16;6075179;23;20024;-90
2022/12/17 16:49:34;;;;;;;2.42;2.25;;;;;;;-0.67;100.00;100925.63;6075289;23;20032;-90
2022/12/17 16:52:02;;;;;;;1.65;1.00;;;;;;;-0.69;100.00;100930.63;6100637;23;20013;-91
2022/12/17 16:54:30;;;;;;;0.73;0.73;;;;;;;-0.68;100.00;100937.66;6075011;23;20360;-90
2022/12/17 16:56:56;;;;;;;0.73;0.73;;;;;;;-0.68;100.00;100943.09;6075766;23;20033;-91
2022/12/17 16:59:22;;;;;;;1.83;1.70;;;;;;;-0.76;100.00;100949.44;6110433;23;20025;-90
2022/12/17 17:01:50;;;;;;;2.92;2.63;;;;;;;-0.77;100.00;100964.22;6130956;23;20027;-90
2022/12/17 17:04:17;;;;;;;0.30;0.30;;;;;;;-0.85;100.00;100954.22;6154907;23;20009;-90
2022/12/17 17:06:53;;;;;;;4.60;4.22;;;;;;;-0.85;100.00;100967.84;6106062;23;20020;-90
2022/12/17 17:09:20;;;;;;;0.80;0.70;;;;;;;-0.80;100.00;100975.78;6129782;23;20013;-89
2022/12/17 17:11:46;;;;;;;3.05;2.85;;;;;;;-0.87;100.00;100975.53;6131350;23;20061;-90
2022/12/17 17:14:12;;;;;;;8.82;4.57;;;;;;;-0.98;100.00;100967.81;6106830;23;20212;-91
2022/12/17 17:16:37;;;;;;;2.60;2.35;;;;;;;-0.93;100.00;100983.16;6106530;23;20047;-89
2022/12/17 17:19:04;;;;;;;4.03;3.33;;;;;;;-0.95;100.00;100988.13;6129601;23;20514;-90
2022/12/17 17:21:33;;;;;;;0.75;0.75;;;;;;;-0.98;100.00;100986.09;6129396;23;20543;-89
2022/12/17 17:24:03;;;;;;;2.88;2.67;;;;;;;-0.96;100.00;100997.44;6106002;23;20017;-89
2022/12/17 17:26:30;;;;;;;6.03;2.80;;;;;;;-0.99;100.00;101001.63;6103045;23;20052;-91
2022/12/17 17:28:56;;;;;;;1.65;1.55;;;;;;;-1.12;100.00;100991.81;6130839;23;20033;-90
2022/12/17 17:31:22;;;;;;;2.50;2.22;;;;;;;-1.11;100.00;101009.75;6104051;23;20020;-91
2022/12/17 17:33:49;;;;;;;3.97;3.50;;;;;;;-1.04;100.00;101020.91;6106418;23;20022;-90
2022/12/17 17:36:22;;;;;;;8.32;2.97;;;;;;;-1.06;100.00;101012.28;6105367;23;20391;-92
2022/12/17 17:38:49;;;;;;;3.03;2.45;;;;;;;-1.15;100.00;101013.47;6130233;23;20458;-90
2022/12/17 17:41:20;;;;;;;1.23;1.20;;;;;;;-1.07;100.00;101026.22;6128515;23;20435;-90
2022/12/17 17:43:46;;;;;;;3.13;2.55;;;;;;;-1.15;100.00;101017.00;6105648;23;20095;-91
2022/12/17 17:46:16;;;;;;;1.55;1.20;;;;;;;-1.25;100.00;101003.03;6104723;23;20291;-90
2022/12/17 17:48:43;;;;;;;6.78;4.13;;;;;;;-1.15;100.00;101033.34;6106042;23;20395;-90
2022/12/17 17:51:14;;;;;;;1.35;0.85;;;;;;;-1.23;100.00;101022.53;6104241;23;20428;-90
2022/12/17 17:53:41;;;;;;;3.95;3.60;;;;;;;-1.19;100.00;101037.84;6105353;23;20618;-90
2022/12/17 17:56:13;;;;;;;2.65;2.53;;;;;;;-1.15;100.00;101046.94;6128636;23;20009;-89
2022/12/17 17:58:44;;;;;;;3.88;3.67;;;;;;;-1.16;100.00;101042.63;6105968;23;20029;-90
2022/12/17 18:01:12;;;;;;;4.80;2.03;;;;;;;-1.23;100.00;101042.38;6128969;23;20028;-90
2022/12/17 18:03:38;;;;;;;2.13;1.90;;;;;;;-1.29;100.00;101046.41;6105948;23;20028;-90
2022/12/17 18:06:06;;;;;;;5.80;5.15;;;;;;;-1.29;100.00;101040.97;6129430;23;20001;-90
2022/12/17 18:08:33;;;;;;;3.45;1.20;;;;;;;-1.28;100.00;101058.91;6129287;23;20021;-90
2022/12/17 18:11:00;;;;;;;0.50;0.50;;;;;;;-1.27;100.00;101067.88;6103857;23;20005;-91
2022/12/17 18:16:10;;;;;;;5.32;2.63;;;;;;;-1.29;100.00;101083.75;6132102;23;20021;-92
2022/12/17 18:18:36;;;;;;;1.45;1.40;;;;;;;-1.36;100.00;101081.53;6106193;23;20012;-90
2022/12/17 18:21:04;;;;;;;2.45;2.17;;;;;;;-1.35;100.00;101080.41;6104277;23;20017;-90
2022/12/17 18:23:30;;;;;;;2.75;1.55;;;;;;;-1.44;100.00;101087.84;6128937;23;20005;-90
2022/12/17 18:25:55;;;;;;;1.40;1.30;;;;;;;-1.45;100.00;101092.47;6128304;23;20740;-90
2022/12/17 18:28:21;;;;;;;0.47;0.47;;;;;;;-1.50;100.00;101087.25;6104364;23;20035;-89
2022/12/17 18:30:47;;;;;;;2.25;2.15;;;;;;;-1.56;100.00;101082.31;6105185;23;20198;-90
2022/12/17 18:33:12;;;;;;;3.97;3.55;;;;;;;-1.58;100.00;101081.88;6129263;23;20084;-90
2022/12/17 18:35:38;;;;;;;1.35;1.27;;;;;;;-1.52;100.00;101102.31;6128989;23;20574;-91
2022/12/17 18:38:05;;;;;;;4.85;2.40;;;;;;;-1.60;100.00;101087.63;6126522;23;20502;-91
2022/12/17 18:40:31;;;;;;;1.52;1.42;;;;;;;-1.60;100.00;101095.00;6127906;23;20021;-91
2022/12/17 18:45:40;;;;;;;4.18;3.38;;;;;;;-1.57;100.00;101100.56;6132942;23;20028;-90
2022/12/17 18:48:06;;;;;;;2.78;2.45;;;;;;;-1.70;100.00;101096.19;6104785;23;20017;-90
2022/12/17 18:50:33;;;;;;;4.00;2.25;;;;;;;-1.67;100.00;101111.03;6104093;23;20019;-91
2022/12/17 18:52:59;;;;;;;4.55;3.30;;;;;;;-1.67;100.00;101122.72;6129917;23;20096;-90
2022/12/17 18:55:25;;;;;;;2.47;2.38;;;;;;;-1.77;100.00;101108.69;6103120;23;20431;-90
2022/12/17 18:57:51;;;;;;;11.20;2.38;;;;;;;-1.79;100.00;101102.78;6104911;23;20449;-91
2022/12/17 19:00:17;;;;;;;1.85;1.75;;;;;;;-1.68;100.00;101120.31;6098990;23;20060;-91
2022/12/17 19:02:43;;;;;;;1.80;1.70;;;;;;;-1.63;100.00;101123.66;6124425;23;20022;-90
2022/12/17 19:05:09;;;;;;;1.75;1.38;;;;;;;-1.88;100.00;101087.31;6098353;23;20424;-91
2022/12/17 19:07:35;;;;;;;1.77;1.67;;;;;;;-1.81;100.00;101099.59;6124019;23;20044;-90
2022/12/17 19:10:01;;;;;;;1.13;1.13;;;;;;;-1.76;100.00;101127.41;6123126;23;20037;-91
2022/12/17 19:12:27;;;;;;;4.22;3.15;;;;;;;-1.66;100.00;101145.28;6148057;23;20032;-90
2022/12/17 19:14:53;;;;;;;1.10;1.08;;;;;;;-1.74;100.00;101146.13;6148767;23;20017;-90
2022/12/17 19:17:20;;;;;;;17.38;2.03;;;;;;;-1.73;100.00;101143.06;6124062;23;20016;-90
2022/12/17 19:19:47;;;;;;;8.45;1.83;;;;;;;-1.75;100.00;101134.44;6124109;23;20017;-91
2022/12/17 19:22:13;;;;;;;1.02;1.00;;;;;;;-1.73;100.00;101139.53;6148612;23;20044;-90
2022/12/17 19:24:39;;;;;;;2.60;2.40;;;;;;;-1.69;100.00;101146.72;6122856;23;20218;-90
2022/12/17 19:27:05;;;;;;;2.53;2.38;;;;;;;-1.84;100.00;101128.25;6123608;23;20016;-90
2022/12/17 19:29:30;;;;;;;3.13;2.78;;;;;;;-1.86;100.00;101135.16;6124272;23;20379;-91
2022/12/17 19:31:56;;;;;;;4.70;2.38;;;;;;;-1.83;100.00;101148.09;6148611;23;20001;-90
2022/12/17 19:34:22;;;;;;;2.83;2.65;;;;;;;-1.77;100.00;101153.00;6122794;23;20033;-90
2022/12/17 19:36:48;;;;;;;2.10;2.00;;;;;;;-1.71;100.00;101156.34;6124937;23;20005;-90
2022/12/17 19:39:16;;;;;;;1.70;1.35;;;;;;;-1.69;100.00;101162.25;6098130;23;20369;-91
2022/12/17 19:41:42;;;;;;;1.15;1.15;;;;;;;-1.72;100.00;101171.06;6123468;23;20009;-90
2022/12/17 19:44:12;;;;;;;1.33;1.25;;;;;;;-1.81;100.00;101154.78;6122869;23;20025;-91
2022/12/17 19:46:38;;;;;;;2.78;2.38;;;;;;;-1.79;100.00;101165.34;6123200;23;20006;-91
2022/12/17 19:49:07;;;;;;;3.47;3.22;;;;;;;-1.82;100.00;101166.81;6099771;23;20352;-90
2022/12/17 19:51:33;;;;;;;1.90;1.83;;;;;;;-1.79;100.00;101179.75;6123888;23;20037;-91
2022/12/17 19:53:59;;;;;;;1.33;1.30;;;;;;;-1.72;100.00;101181.94;6098462;23;20131;-90
2022/12/17 19:56:30;;;;;;;4.47;2.92;;;;;;;-1.70;100.00;101187.88;6074089;23;20020;-91
2022/12/17 19:58:59;;;;;;;2.65;2.45;;;;;;;-1.72;100.00;101184.66;6123729;23;20084;-91
2022/12/17 20:01:36;;;;;;;1.70;1.63;;;;;;;-1.91;100.00;101172.28;6123421;23;20025;-90
2022/12/17 20:04:02;;;;;;;5.40;3.15;;;;;;;-1.74;100.00;101187.72;6123923;23;20013;-90
2022/12/17 20:06:29;;;;;;;2.22;2.13;;;;;;;-1.76;100.00;101187.25;6123301;23;20033;-90
2022/12/17 20:09:00;;;;;;;2.78;2.58;;;;;;;-1.86;100.00;101178.66;6099452;23;20013;-90
2022/12/17 20:11:32;;;;;;;1.50;1.33;;;;;;;-2.01;100.00;101156.31;6098482;23;20032;-90
2022/12/17 20:14:09;;;;;;;2.22;1.85;;;;;;;-1.77;100.00;101182.13;6100010;23;20539;-91
2022/12/17 20:16:46;;;;;;;0.77;0.77;;;;;;;-1.86;100.00;101184.09;6123771;23;20025;-90
2022/12/17 20:19:32;;;;;;;4.88;4.43;;;;;;;-1.98;100.00;101160.31;6098934;23;20045;-90
2022/12/17 20:22:00;;;;;;;4.78;2.17;;;;;;;-1.79;100.00;101208.88;6098630;23;20101;-89
2022/12/17 20:24:26;;;;;;;1.10;1.08;;;;;;;-2.09;100.00;101170.72;6122711;23;20057;-90
2022/12/17 20:26:52;;;;;;;7.43;4.95;;;;;;;-1.85;100.00;101202.00;6099015;23;20051;-90
2022/12/17 20:29:19;;;;;;;2.83;2.70;;;;;;;-1.88;100.00;101198.81;6096424;23;20009;-88
2022/12/17 20:31:45;;;;;;;2.28;1.80;;;;;;;-1.90;100.00;101198.31;6123102;23;20448;-91
2022/12/17 20:34:13;;;;;;;1.88;1.80;;;;;;;-1.83;100.00;101221.53;6121985;23;20014;-91
2022/12/17 20:36:39;;;;;;;1.42;1.25;;;;;;;-1.88;100.00;101215.13;6124762;23;20021;-90
2022/12/17 20:39:06;;;;;;;2.80;2.60;;;;;;;-1.83;100.00;101226.97;6097039;23;20009;-91
2022/12/17 20:41:35;;;;;;;0.52;0.52;;;;;;;-1.97;100.00;101217.06;6099739;23;20415;-89
2022/12/17 20:44:06;;;;;;;1.98;1.85;;;;;;;-2.04;100.00;101216.78;6123362;23;20097;-89
2022/12/17 20:46:35;;;;;;;8.45;3.63;;;;;;;-2.01;100.00;101232.44;6099452;23;20017;-89
2022/12/17 20:49:04;;;;;;;1.92;1.83;;;;;;;-2.00;100.00;101239.47;6099265;23;20105;-90
2022/12/17 20:51:30;;;;;;;1.30;1.30;;;;;;;-1.97;100.00;101254.34;6124070;23;20026;-91
2022/12/17 20:53:57;;;;;;;2.35;2.25;;;;;;;-2.03;100.00;101256.44;6098129;23;20136;-91
2022/12/17 20:56:26;;;;;;;1.08;1.08;;;;;;;-2.07;100.00;101241.91;6123355;23;20010;-91
2022/12/17 20:58:53;;;;;;;0.63;0.63;;;;;;;-2.03;100.00;101242.84;6102630;23;20025;-91
2022/12/17 21:01:21;;;;;;;1.67;1.58;;;;;;;-2.19;100.00;101233.59;6104389;23;20023;-92
2022/12/17 21:03:49;;;;;;;2.97;2.72;;;;;;;-2.07;100.00;101254.69;6106201;23;20384;-90
2022/12/17 21:06:19;;;;;;;8.52;3.53;;;;;;;-2.11;100.00;101240.94;6130229;23;20083;-88
2022/12/17 21:08:49;;;;;;;3.35;2.65;;;;;;;-2.03;100.00;101255.66;6177317;23;20020;-88
2022/12/17 21:11:20;;;;;;;2.28;2.05;;;;;;;-2.08;100.00;101248.44;6150528;23;20466;-88
2022/12/17 21:13:46;;;;;;;1.83;1.73;;;;;;;-2.09;100.00;101252.28;6128179;23;20012;-87
2022/12/17 21:16:22;;;;;;;3.72;3.47;;;;;;;-2.09;100.00;101263.16;6153548;23;20008;-89
2022/12/17 21:18:47;;;;;;;3.35;3.05;;;;;;;-2.04;100.00;101260.28;6127821;23;20016;-88
2022/12/17 21:21:17;;;;;;;0.60;0.60;;;;;;;-1.98;100.00;101278.00;6124083;23;20017;-89
2022/12/17 21:23:44;;;;;;;2.30;2.15;;;;;;;-2.08;100.00;101270.19;6153871;23;20004;-90
2022/12/17 21:26:18;;;;;;;0.80;0.80;;;;;;;-2.02;100.00;101268.91;6156821;23;20017;-88
2022/12/17 21:28:45;;;;;;;3.17;2.78;;;;;;;-2.05;100.00;101266.81;6156528;23;20020;-88
2022/12/17 21:31:20;;;;;;;1.30;1.20;;;;;;;-2.00;100.00;101274.81;6127747;23;20044;-88
2022/12/17 21:33:46;;;;;;;2.50;1.85;;;;;;;-2.09;100.00;101263.16;6106613;23;20021;-88
2022/12/17 21:36:13;;;;;;;3.80;3.60;;;;;;;-2.06;100.00;101284.25;6105540;23;20012;-88
2022/12/17 21:38:38;;;;;;;0.30;0.30;;;;;;;-2.02;100.00;101289.88;6130485;23;20009;-87
2022/12/17 21:41:08;;;;;;;1.48;1.40;;;;;;;-2.16;100.00;101273.72;6129746;23;20081;-88
2022/12/17 21:43:35;;;;;;;1.08;1.08;;;;;;;-2.14;100.00;101282.34;6130326;23;20025;-88
2022/12/17 21:46:02;;;;;;;0.65;0.65;;;;;;;-2.09;100.00;101295.78;6155533;23;20047;-91
2022/12/17 21:48:27;;;;;;;1.90;1.80;;;;;;;-2.12;100.00;101296.44;6132989;23;20092;-90
2022/12/17 21:50:53;;;;;;;3.60;2.53;;;;;;;-2.17;100.00;101287.63;6131420;23;20456;-90
2022/12/17 21:53:19;;;;;;;3.70;3.40;;;;;;;-2.24;100.00;101285.41;6106378;23;20001;-91
2022/12/17 21:55:44;;;;;;;1.08;1.05;;;;;;;-2.17;100.00;101299.31;6106110;23;20026;-89
2022/12/17 21:58:10;;;;;;;2.20;1.95;;;;;;;-2.14;100.00;101306.81;6106147;23;20100;-90
2022/12/17 22:00:35;;;;;;;2.88;2.67;;;;;;;-2.25;100.00;101286.53;6107460;23;20028;-92
2022/12/17 22:03:01;;;;;;;1.25;1.25;;;;;;;-2.27;100.00;101290.69;6130171;23;20020;-92
2022/12/17 22:05:27;;;;;;;0.47;0.47;;;;;;;-2.24;100.00;101293.56;6130257;23;20009;-88
2022/12/17 22:07:52;;;;;;;2.30;2.15;;;;;;;-2.23;100.00;101295.16;6105120;23;20021;-88
2022/12/17 22:10:18;;;;;;;2.55;2.25;;;;;;;-2.24;100.00;101299.00;6105933;23;20462;-88
2022/12/17 22:15:28;;;;;;;0.63;0.63;;;;;;;-2.19;100.00;101315.16;6159735;23;20021;-89
2022/12/17 22:17:55;;;;;;;1.48;1.38;;;;;;;-2.31;100.00;101293.25;6181506;23;20084;-88
2022/12/17 22:20:21;;;;;;;0.13;0.13;;;;;;;-2.27;100.00;101315.94;6155768;23;20382;-88
2022/12/17 22:22:47;;;;;;;1.75;1.67;;;;;;;-2.25;100.00;101324.56;6150618;23;20029;-93
2022/12/17 22:25:13;;;;;;;1.38;1.27;;;;;;;-2.22;100.00;101328.59;6105169;23;20028;-92
2022/12/17 22:27:39;;;;;;;5.93;3.30;;;;;;;-2.24;100.00;101331.63;6130263;23;20121;-93
2022/12/17 22:33:01;;;;;;;0.98;0.98;;;;;;;-2.32;100.00;101340.56;6157434;23;20107;-93
2022/12/17 22:35:27;;;;;;;3.55;1.65;;;;;;;-2.31;100.00;101341.38;6106116;23;20021;-93
2022/12/17 22:37:53;;;;;;;3.38;2.10;;;;;;;-2.34;100.00;101333.84;6130911;23;20027;-93
2022/12/17 22:40:20;;;;;;;1.73;1.63;;;;;;;-2.34;100.00;101339.28;6130032;23;20347;-89
2022/12/17 22:45:30;;;;;;;1.00;1.00;;;;;;;-2.42;100.00;101357.97;6159434;23;20068;-89
2022/12/17 22:47:55;;;;;;;0.88;0.88;;;;;;;-2.46;100.00;101356.19;6105626;23;20009;-89
2022/12/17 22:50:21;;;;;;;2.78;1.58;;;;;;;-2.50;100.00;101347.88;6130835;23;20020;-88
2022/12/17 22:52:46;;;;;;;4.25;1.50;;;;;;;-2.49;100.00;101356.84;6130533;23;20009;-89
2022/12/17 22:55:12;;;;;;;2.72;2.53;;;;;;;-2.56;100.00;101351.09;6105226;23;20017;-89
2022/12/17 22:57:38;;;;;;;1.48;1.40;;;;;;;-2.57;100.00;101365.78;6128341;23;20403;-88
2022/12/17 23:00:16;;;;;;;0.40;0.40;;;;;;;-2.53;100.00;101385.75;6106290;23;20021;-88
2022/12/17 23:02:42;;;;;;;0.88;0.88;;;;;;;-2.51;100.00;101383.53;6130335;23;20021;-88
2022/12/17 23:05:08;;;;;;;3.17;2.22;;;;;;;-2.55;100.00;101386.09;6131047;23;20424;-89
2022/12/17 23:07:33;;;;;;;1.55;1.48;;;;;;;-2.61;100.00;101387.34;6106167;23;20005;-89
2022/12/17 23:09:59;;;;;;;2.20;2.03;;;;;;;-2.60;100.00;101399.00;6130705;23;20075;-88
2022/12/17 23:15:08;;;;;;;1.60;1.50;;;;;;;-2.68;100.00;101391.63;6134217;23;20024;-88
2022/12/17 23:17:34;;;;;;;2.80;2.55;;;;;;;-2.66;100.00;101395.63;6107068;23;20012;-92
2022/12/17 23:20:00;;;;;;;0.50;0.50;;;;;;;-2.65;100.00;101401.88;6130612;23;20009;-93
2022/12/17 23:22:25;;;;;;;1.55;1.45;;;;;;;-2.70;100.00;101404.72;6106894;23;20037;-92
2022/12/17 23:24:51;;;;;;;1.85;1.75;;;;;;;-2.71;100.00;101411.28;6105711;23;20393;-93
2022/12/17 23:27:16;;;;;;;1.52;1.48;;;;;;;-2.73;100.00;101414.31;6106641;23;20037;-91
2022/12/17 23:29:42;;;;;;;3.83;1.48;;;;;;;-2.84;100.00;101394.78;6130382;23;20088;-93
2022/12/17 23:32:07;;;;;;;1.70;1.60;;;;;;;-2.78;100.00;101413.63;6106462;23;20120;-92
2022/12/17 23:34:33;;;;;;;1.17;1.17;;;;;;;-2.82;100.00;101418.91;6106044;23;20021;-93
2022/12/17 23:36:59;;;;;;;2.00;1.85;;;;;;;-2.82;100.00;101425.13;6130981;23;20024;-91
2022/12/17 23:39:24;;;;;;;2.83;2.47;;;;;;;-2.86;100.00;101417.94;6130366;23;20017;-89
2022/12/17 23:41:53;;;;;;;0.50;0.50;;;;;;;-2.86;100.00;101416.00;6130028;23;20056;-89
2022/12/17 23:44:18;;;;;;;0.43;0.43;;;;;;;-2.89;100.00;101418.56;6129365;23;20021;-88
2022/12/17 23:46:44;;;;;;;0.30;0.30;;;;;;;-2.97;100.00;101406.56;6104864;23;20067;-88
2022/12/17 23:49:09;;;;;;;0.65;0.65;;;;;;;-2.94;100.00;101419.50;6130598;23;20115;-88
2022/12/17 23:51:36;;;;;;;1.38;1.30;;;;;;;-2.96;100.00;101418.22;6181411;23;20009;-89
2022/12/17 23:54:01;;;;;;;1.45;1.35;;;;;;;-2.92;100.00;101427.34;6155086;23;20020;-88
2022/12/17 23:56:27;;;;;;;1.15;0.85;;;;;;;-2.99;100.00;101419.63;6181880;23;20087;-92
2022/12/17 23:58:55;;;;;;;1.23;1.20;;;;;;;-2.83;100.00;101444.47;6155346;23;20017;-92
